Latest Weather Observations for Holsworthy

IDN60801

Issued at 5:02 pm EST Sunday 25 June 2017 (issued every 30 minutes, with the page automatically refreshed every 10 minutes)

About weather observations | Map of weather stations | Latest weather observations for NSW | Other Formats
Station Details ID: 066161 Name: HOLSWORTHY AERODROME AWS Lat: -33.99 Lon: 150.95 Height: 68.16 m
Data from the previous 72 hours. | See also: Recent months at Holsworthy
Date/Time
EST
Temp
°C
App
Temp
°C
Dew
Point
°C
Rel
Hum
%
Delta-T
°C
Wind Press
QNH
hPa
Press
MSL
hPa
Rain since
9am
mm
Dir  Spd
km/h
Gust
km/h
Spd
kts
Gust
kts
25/05:00pm 14.3 10.6 4.6 52 4.5 SW 13 19 7 10 1016.5 1016.5 0.0
25/04:30pm 15.8 12.9 4.8 48 5.2 SW 9 13 5 7 1016.0 1016.0 0.0
25/04:00pm 16.9 12.8 4.3 43 5.9 WSW 15 28 8 15 1015.9 1015.9 0.0
25/03:30pm 17.4 12.9 4.4 42 6.2 WSW 17 28 9 15 1015.6 1015.6 0.0
25/03:00pm 17.7 12.5 3.6 39 6.6 W 20 28 11 15 1015.4 1015.4 0.0
25/02:30pm 17.8 12.5 2.9 37 6.9 WSW 20 33 11 18 1015.3 1015.3 0.0
25/02:00pm 17.8 12.2 3.7 39 6.6 W 22 33 12 18 1015.5 1015.5 0.0
25/01:30pm 17.4 10.9 2.6 37 6.8 WSW 26 43 14 23 1015.5 1015.5 0.0
25/01:00pm 17.1 11.4 3.1 39 6.4 W 22 35 12 19 1015.7 1015.7 0.0
25/12:30pm 16.2 13.0 5.2 48 5.3 WNW 11 19 6 10 1016.2 1016.2 0.0
25/12:00pm 15.4 11.4 4.8 49 5.0 WNW 15 20 8 11 1016.8 1016.8 0.0
25/11:30am 14.8 10.8 4.8 51 4.7 NW 15 20 8 11 1017.3 1017.3 0.0
25/11:00am 13.8 9.7 4.4 53 4.3 WNW 15 24 8 13 1017.8 1017.8 0.0
25/10:30am 13.1 10.5 6.0 62 3.4 N 9 13 5 7 1018.1 1018.1 0.0
25/10:00am 11.2 8.6 6.1 71 2.4 N 9 15 5 8 1018.5 1018.5 0.0
25/09:30am 8.7 6.3 5.3 79 1.5 W 7 9 4 5 1018.7 1018.7 0.0
25/09:00am 7.1 4.6 4.9 86 1.0 WSW 7 9 4 5 1018.6 1018.6 0.0
25/08:30am 5.3 2.7 4.0 91 0.6 WSW 7 9 4 5 1018.5 1018.5 0.0
25/08:00am 4.0 0.9 3.4 96 0.2 WSW 9 13 5 7 1018.4 1018.4 0.0
25/07:30am 2.7 -0.3 2.3 97 0.2 WSW 7 9 4 5 1018.3 1018.3 0.0
25/07:00am 1.5 -1.7 0.8 95 0.3 W 7 11 4 6 1018.2 1018.2 0.0
25/06:30am 2.0 -0.2 1.1 94 0.3 WSW 2 6 1 3 1018.1 1018.1 0.0
25/06:00am 2.5 0.4 1.6 94 0.3 NE 2 7 1 4 1017.7 1017.7 0.0
25/05:30am 3.6 1.0 3.0 96 0.2 SSW 6 9 3 5 1017.5 1017.5 0.0
25/05:00am 2.3 -0.8 1.6 95 0.3 SW 7 11 4 6 1017.6 1017.6 0.0
25/04:30am 2.6 -0.3 1.7 94 0.3 SW 6 7 3 4 1017.5 1017.5 0.0
25/04:00am 2.8 0.0 1.9 94 0.4 WSW 6 9 3 5 1017.5 1017.5 0.0
25/03:30am 3.2 0.2 2.2 93 0.4 SW 7 11 4 6 1017.5 1017.5 0.0
25/03:00am 3.8 0.9 2.5 91 0.5 SW 7 11 4 6 1017.5 1017.5 0.0
25/02:30am 4.1 0.9 2.9 92 0.5 WSW 9 11 5 6 1017.4 1017.4 0.0
25/02:00am 4.2 1.0 3.0 92 0.5 WSW 9 11 5 6 1017.5 1017.5 0.0
25/01:30am 4.3 1.1 3.1 92 0.5 WSW 9 15 5 8 1017.5 1017.5 0.0
25/01:00am 4.7 2.1 3.2 90 0.6 SSW 6 7 3 4 1017.4 1017.4 0.0
25/12:30am 4.8 1.6 3.3 90 0.6 WSW 9 11 5 6 1017.5 1017.5 0.0
25/12:00am 5.1 2.5 3.1 87 0.8 WSW 6 7 3 4 1017.8 1017.8 0.0
 
Date/Time
EST
Temp
°C
App
Temp
°C
Dew
Point
°C
Rel
Hum
%
Delta-T
°C
Wind Press
QNH
hPa
Press
MSL
hPa
Rain since
9am
mm
Dir  Spd
km/h
Gust
km/h
Spd
kts
Gust
kts
24/11:30pm 5.4 3.1 2.9 84 1.0 NW 4 9 2 5 1018.0 1018.0 0.0
24/11:00pm 7.4 5.9 3.1 74 1.8 CALM 0 4 0 2 1017.9 1017.9 0.0
24/10:30pm 9.3 5.8 3.7 68 2.4 S 11 11 6 6 1017.8 1017.8 0.0
24/10:00pm 10.0 6.2 4.0 66 2.6 S 13 15 7 8 1017.9 1017.9 0.0
24/09:30pm 9.0 5.9 3.4 68 2.4 SSW 9 11 5 6 1017.9 1017.9 0.0
24/09:00pm 10.1 7.0 3.4 63 2.9 SSW 9 13 5 7 1017.7 1017.7 0.0
24/08:30pm 10.3 7.2 3.8 64 2.9 SSW 9 11 5 6 1017.6 1017.6 0.0
24/08:00pm 10.3 7.3 4.0 65 2.8 SSW 9 11 5 6 1017.5 1017.5 0.0
24/07:30pm 9.9 6.9 4.1 67 2.6 WSW 9 13 5 7 1017.4 1017.4 0.0
24/07:00pm 10.3 7.3 4.0 65 2.8 SW 9 11 5 6 1017.2 1017.2 0.0
24/06:30pm 11.4 8.1 4.6 63 3.1 SSW 11 13 6 7 1016.8 1016.8 0.0
24/06:00pm 11.1 8.6 5.0 66 2.8 WSW 7 9 4 5 1016.4 1016.4 0.0
24/05:30pm 12.0 9.1 4.7 61 3.3 SW 9 11 5 6 1016.1 1016.1 0.0
24/05:00pm 12.7 10.8 4.9 59 3.6 WSW 4 6 2 3 1015.9 1015.9 0.0
24/04:30pm 16.1 14.2 5.1 48 5.2 WSW 4 7 2 4 1015.7 1015.7 0.0
24/04:00pm 18.2 16.2 6.1 45 6.0 WSW 6 9 3 5 1015.5 1015.5 0.0
24/03:30pm 18.4 15.4 5.9 44 6.2 WSW 11 20 6 11 1015.3 1015.3 0.0
24/03:00pm 18.3 14.3 4.8 41 6.5 WSW 15 20 8 11 1015.3 1015.3 0.0
24/02:30pm 18.1 13.6 4.3 40 6.6 W 17 24 9 13 1015.3 1015.3 0.0
24/02:00pm 18.2 13.4 5.4 43 6.2 W 20 32 11 17 1015.2 1015.2 0.0
24/01:30pm 17.2 13.8 6.1 48 5.4 WNW 13 17 7 9 1015.2 1015.2 0.0
24/01:00pm 17.2 13.5 6.1 48 5.4 WNW 15 22 8 12 1015.4 1015.4 0.0
24/12:30pm 16.7 14.3 6.8 52 4.9 NW 9 15 5 8 1015.8 1015.8 0.0
24/12:00pm 16.0 13.5 6.4 53 4.7 NW 9 15 5 8 1016.2 1016.2 0.0
24/11:30am 15.0 12.3 5.8 54 4.4 W 9 13 5 7 1016.7 1016.7 0.0
24/11:00am 13.8 11.2 5.9 59 3.8 NW 9 15 5 8 1017.0 1017.0 0.0
24/10:30am 12.4 10.2 6.2 66 2.9 NW 7 13 4 7 1017.4 1017.4 0.0
24/10:00am 11.7 9.0 5.6 66 2.8 NW 9 11 5 6 1017.7 1017.7 0.0
24/09:30am 10.8 8.6 6.0 72 2.2 WNW 7 13 4 7 1018.0 1018.0 0.0
24/09:00am 9.4 5.9 5.4 76 1.8 WSW 13 15 7 8 1017.6 1017.6 0.0
24/08:30am 8.5 5.7 5.3 80 1.4 SW 9 13 5 7 1017.4 1017.4 0.0
24/08:00am 7.9 5.4 4.5 79 1.5 W 7 11 4 6 1017.0 1017.0 0.0
24/07:30am 5.9 2.8 3.7 86 0.9 WSW 9 11 5 6 1016.9 1016.9 0.0
24/07:00am 5.3 2.2 3.8 90 0.6 SSW 9 11 5 6 1016.6 1016.6 0.0
24/06:30am 5.8 4.4 3.6 86 0.9 CALM 0 2 0 1 1016.1 1016.1 0.0
24/06:00am 6.5 3.5 4.0 84 1.1 W 9 13 5 7 1015.5 1015.5 0.0
24/05:30am 6.5 3.5 4.2 85 1.0 WNW 9 11 5 6 1015.2 1015.2 0.0
24/05:00am 6.5 3.5 4.3 86 0.9 W 9 11 5 6 1014.8 1014.8 0.0
24/04:30am 6.6 3.7 4.6 87 0.9 WNW 9 13 5 7 1014.2 1014.3 0.0
24/04:00am 6.0 3.0 4.3 89 0.7 WSW 9 11 5 6 1014.7 1014.7 0.0
24/03:30am 6.5 3.6 4.5 87 0.9 W 9 13 5 7 1015.2 1015.2 0.0
24/03:00am 5.7 2.0 4.3 91 0.6 WSW 13 19 7 10 1014.9 1014.9 0.0
24/02:30am 6.1 2.8 4.6 90 0.6 WSW 11 15 6 8 1014.8 1014.8 0.0
24/02:00am 6.1 3.6 4.7 91 0.6 WSW 7 9 4 5 1014.7 1014.7 0.0
24/01:30am 6.4 3.7 5.7 95 0.3 SW 9 13 5 7 1014.9 1014.9 0.0
24/01:00am 6.0 4.1 5.1 94 0.4 S 4 6 2 3 1014.5 1014.5 0.0
24/12:30am 5.6 3.0 4.4 92 0.5 W 7 11 4 6 1014.6 1014.6 0.0
24/12:00am 6.1 3.3 5.1 93 0.4 W 9 13 5 7 1014.6 1014.6 0.0
 
Date/Time
EST
Temp
°C
App
Temp
°C
Dew
Point
°C
Rel
Hum
%
Delta-T
°C
Wind Press
QNH
hPa
Press
MSL
hPa
Rain since
9am
mm
Dir  Spd
km/h
Gust
km/h
Spd
kts
Gust
kts
23/11:30pm 6.6 5.2 5.4 92 0.5 WSW 2 7 1 4 1015.0 1015.0 0.0
23/11:00pm 7.0 5.0 6.1 94 0.4 SSW 6 7 3 4 1015.4 1015.4 0.0
23/10:30pm 7.2 4.7 6.5 95 0.3 SW 9 11 5 6 1015.6 1015.6 0.0
23/10:00pm 8.1 5.4 7.5 96 0.3 SW 11 13 6 7 1015.3 1015.3 0.0
23/09:30pm 7.3 5.7 6.2 93 0.5 WNW 4 6 2 3 1015.1 1015.1 0.0
23/09:00pm 7.7 6.9 6.5 92 0.6 CALM 0 0 0 0 1015.4 1015.4 0.0
23/08:30pm 8.5 7.8 7.0 90 0.7 CALM 0 0 0 0 1015.3 1015.3 0.0
23/08:00pm 9.4 7.7 7.5 88 0.9 SSW 6 11 3 6 1015.4 1015.4 0.0
23/07:30pm 10.3 8.4 7.7 84 1.3 SSW 7 9 4 5 1015.3 1015.3 0.0
23/07:00pm 11.2 9.0 9.3 88 1.0 SW 11 13 6 7 1015.4 1015.4 0.0
23/06:30pm 10.4 9.2 8.2 86 1.1 SSW 4 7 2 4 1015.0 1015.0 0.0
23/06:00pm 11.9 11.8 9.3 84 1.3 CALM 0 0 0 0 1015.0 1015.0 0.0
23/05:30pm 12.6 12.6 9.8 83 1.4 CALM 0 0 0 0 1015.1 1015.1 0.0
23/05:00pm 13.6 12.3 9.3 75 2.2 S 6 7 3 4 1015.0 1015.0 0.0
23/04:30pm 15.3 13.6 9.7 69 2.9 SSW 9 11 5 6 1014.9 1014.9 0.0
23/04:00pm 16.4 15.3 10.0 66 3.4 W 6 7 3 4 1014.5 1014.5 0.0
23/03:30pm 16.1 14.7 9.5 65 3.4 NW 7 13 4 7 1014.9 1014.9 0.0
23/03:00pm 16.5 14.8 9.7 64 3.6 NNW 9 11 5 6 1015.2 1015.2 0.0
23/02:30pm 15.3 13.9 9.4 68 3.1 NNW 7 11 4 6 1015.1 1015.1 0.0
23/02:00pm 14.7 13.2 9.3 70 2.8 N 7 9 4 5 1015.3 1015.3 0.0
23/01:30pm 14.1 12.4 8.5 69 2.8 NNW 7 11 4 6 1016.0 1016.0 0.0
23/01:00pm 13.9 12.3 8.9 72 2.5 NNW 7 9 4 5 1016.5 1016.5 0.0
23/12:30pm 13.9 11.9 8.5 70 2.7 NNW 9 13 5 7 1017.2 1017.2 0.0
23/12:00pm 13.8 11.8 8.8 72 2.5 NW 9 13 5 7 1017.7 1017.7 0.0
23/11:30am 13.0 11.7 9.1 77 2.0 NW 6 9 3 5 1018.8 1018.8 0.0
23/11:00am 12.2 10.1 8.3 77 1.9 NNW 9 13 5 7 1019.4 1019.4 0.0
23/10:30am 11.4 9.7 8.3 81 1.5 WNW 7 11 4 6 1020.1 1020.1 0.0
23/10:00am 9.9 8.2 8.3 90 0.8 WNW 7 9 4 5 1020.7 1020.7 0.0
23/09:30am 8.9 7.1 8.0 94 0.4 NW 7 11 4 6 1021.0 1021.0 0.0
23/09:00am 7.4 5.6 7.0 97 0.2 W 6 9 3 5 1020.8 1020.8 0.2
23/08:30am 6.8 4.6 6.4 97 0.2 WSW 7 9 4 5 1020.7 1020.7 0.2
23/08:00am 6.7 4.7 6.4 98 0.1 WSW 6 7 3 4 1020.6 1020.6 0.2
23/07:30am 6.3 3.3 6.0 98 0.1 WSW 11 15 6 8 1021.0 1021.0 0.2
23/07:00am 6.3 3.3 6.0 98 0.1 WSW 11 15 6 8 1020.9 1020.9 0.0
23/06:30am 5.6 3.2 5.3 98 0.1 W 7 9 4 5 1020.7 1020.7 0.0
23/06:00am 5.8 3.5 5.5 98 0.1 WNW 7 11 4 6 1020.7 1020.7 0.0
23/05:30am 5.4 3.0 5.1 98 0.1 WNW 7 9 4 5 1020.6 1020.6 0.0
23/05:00am 5.1 2.6 4.8 98 0.1 W 7 9 4 5 1020.9 1020.9 0.0
23/04:30am 5.4 2.6 5.1 98 0.1 W 9 11 5 6 1021.0 1021.0 0.0
23/04:00am 5.4 2.6 5.0 97 0.2 WSW 9 11 5 6 1020.9 1020.9 0.0
23/03:30am 5.6 2.4 5.3 98 0.1 WSW 11 17 6 9 1021.3 1021.3 0.0
23/03:00am 5.4 2.6 5.0 97 0.2 W 9 11 5 6 1021.4 1021.4 0.0
23/02:30am 5.8 3.4 5.4 97 0.2 SW 7 11 4 6 1021.6 1021.6 0.0
23/02:00am 5.9 3.1 5.3 96 0.3 WSW 9 13 5 7 1021.8 1021.8 0.0
23/01:30am 5.2 3.5 4.2 93 0.4 WSW 2 9 1 5 1022.1 1022.1 0.0
23/01:00am 6.6 4.9 5.9 95 0.3 SW 4 6 2 3 1022.2 1022.2 0.0
23/12:30am 5.8 4.6 4.4 91 0.6 CALM 0 0 0 0 1022.5 1022.5 0.0
23/12:00am 7.4 6.2 6.5 94 0.4 SSE 2 6 1 3 1022.6 1022.6 0.0
 
Date/Time
EST
Temp
°C
App
Temp
°C
Dew
Point
°C
Rel
Hum
%
Delta-T
°C
Wind Press
QNH
hPa
Press
MSL
hPa
Rain since
9am
mm
Dir  Spd
km/h
Gust
km/h
Spd
kts
Gust
kts
22/11:30pm 7.7 6.2 6.8 94 0.4 S 4 6 2 3 1023.2 1023.2 0.0
22/11:00pm 8.0 6.2 7.1 94 0.4 S 6 6 3 3 1023.8 1023.9 0.0
22/10:30pm 7.8 5.6 6.4 91 0.6 WSW 7 9 4 5 1023.9 1024.0 0.0
22/10:00pm 9.2 8.3 7.8 91 0.7 SSE 2 6 1 3 1023.7 1023.7 0.0
22/09:30pm 9.9 8.4 8.3 90 0.8 SSE 6 7 3 4 1024.0 1024.1 0.0
22/09:00pm 10.6 8.9 8.4 86 1.1 SSE 7 7 4 4 1024.2 1024.3 0.0
22/08:30pm 11.5 10.0 9.2 86 1.2 SE 7 9 4 5 1024.4 1024.5 0.0
22/08:00pm 11.8 10.4 9.5 86 1.2 SE 7 9 4 5 1024.4 1024.5 0.0
22/07:30pm 12.5 11.2 10.0 85 1.3 SE 7 9 4 5 1024.4 1024.5 0.0
22/07:00pm 12.2 10.5 9.9 86 1.2 SE 9 9 5 5 1024.5 1024.6 0.0
22/06:30pm 12.6 11.0 10.1 85 1.3 SE 9 11 5 6 1024.6 1024.7 0.0
22/06:00pm 12.6 11.0 10.1 85 1.3 SE 9 11 5 6 1024.3 1024.4 0.0
22/05:30pm 13.3 11.7 10.1 81 1.7 SE 9 11 5 6 1024.2 1024.3 0.0

Other Formats:

Comma delimited format used in spreadsheet applications
http://www.bom.gov.au/fwo/IDN60801/IDN60801.95761.axf

JavaScript Object Notation format (JSON) in row-major order
http://www.bom.gov.au/fwo/IDN60801/IDN60801.95761.json